sensor_id;sensor_type;location;lat;lon;timestamp;temperature;humidity
25871;DHT22;13689;48.590;7.752;2023-05-16T00:00:16;16.30;68.00
25871;DHT22;13689;48.590;7.752;2023-05-16T00:02:41;16.20;68.10
25871;DHT22;13689;48.590;7.752;2023-05-16T00:05:07;16.10;68.60
25871;DHT22;13689;48.590;7.752;2023-05-16T00:07:33;16.00;69.20
25871;DHT22;13689;48.590;7.752;2023-05-16T00:09:59;16.00;69.50
25871;DHT22;13689;48.590;7.752;2023-05-16T00:12:25;15.90;69.60
25871;DHT22;13689;48.590;7.752;2023-05-16T00:14:50;15.80;70.50
25871;DHT22;13689;48.590;7.752;2023-05-16T00:17:17;15.70;71.30
25871;DHT22;13689;48.590;7.752;2023-05-16T00:19:45;15.60;71.90
25871;DHT22;13689;48.590;7.752;2023-05-16T00:22:13;15.40;73.20
25871;DHT22;13689;48.590;7.752;2023-05-16T00:24:40;15.40;73.70
25871;DHT22;13689;48.590;7.752;2023-05-16T00:27:05;15.40;73.90
25871;DHT22;13689;48.590;7.752;2023-05-16T00:29:31;15.40;73.80
25871;DHT22;13689;48.590;7.752;2023-05-16T00:31:57;15.50;73.70
25871;DHT22;13689;48.590;7.752;2023-05-16T00:34:22;15.60;73.50
25871;DHT22;13689;48.590;7.752;2023-05-16T00:36:51;15.60;73.60
25871;DHT22;13689;48.590;7.752;2023-05-16T00:39:16;15.70;73.40
25871;DHT22;13689;48.590;7.752;2023-05-16T00:41:42;15.70;73.50
25871;DHT22;13689;48.590;7.752;2023-05-16T00:44:07;15.70;73.70
25871;DHT22;13689;48.590;7.752;2023-05-16T00:46:33;15.70;73.60
25871;DHT22;13689;48.590;7.752;2023-05-16T00:48:58;15.70;73.50
25871;DHT22;13689;48.590;7.752;2023-05-16T00:51:24;15.70;73.50
25871;DHT22;13689;48.590;7.752;2023-05-16T00:53:50;15.70;73.40
25871;DHT22;13689;48.590;7.752;2023-05-16T00:56:16;15.80;73.60
25871;DHT22;13689;48.590;7.752;2023-05-16T00:58:41;15.70;73.50
25871;DHT22;13689;48.590;7.752;2023-05-16T01:01:07;15.70;74.00
25871;DHT22;13689;48.590;7.752;2023-05-16T01:03:33;15.60;74.50
25871;DHT22;13689;48.590;7.752;2023-05-16T01:05:59;15.60;74.80
25871;DHT22;13689;48.590;7.752;2023-05-16T01:08:25;15.50;75.10
25871;DHT22;13689;48.590;7.752;2023-05-16T01:11:02;15.50;75.80
25871;DHT22;13689;48.590;7.752;2023-05-16T01:13:47;15.50;75.80
25871;DHT22;13689;48.590;7.752;2023-05-16T01:16:19;15.60;75.60
25871;DHT22;13689;48.590;7.752;2023-05-16T01:21:15;15.70;75.30
25871;DHT22;13689;48.590;7.752;2023-05-16T01:23:48;15.80;75.10
25871;DHT22;13689;48.590;7.752;2023-05-16T01:26:22;15.80;75.10
25871;DHT22;13689;48.590;7.752;2023-05-16T01:28:52;15.80;75.10
25871;DHT22;13689;48.590;7.752;2023-05-16T01:31:18;15.80;75.20
25871;DHT22;13689;48.590;7.752;2023-05-16T01:33:44;15.80;75.20
25871;DHT22;13689;48.590;7.752;2023-05-16T01:39:10;15.70;75.10
25871;DHT22;13689;48.590;7.752;2023-05-16T01:44:04;15.60;75.40
25871;DHT22;13689;48.590;7.752;2023-05-16T01:46:33;15.60;75.50
25871;DHT22;13689;48.590;7.752;2023-05-16T01:49:14;15.60;75.60
25871;DHT22;13689;48.590;7.752;2023-05-16T01:51:50;15.60;75.60
25871;DHT22;13689;48.590;7.752;2023-05-16T01:54:18;15.60;75.60
25871;DHT22;13689;48.590;7.752;2023-05-16T01:56:46;15.60;75.50
25871;DHT22;13689;48.590;7.752;2023-05-16T01:59:13;15.60;75.70
25871;DHT22;13689;48.590;7.752;2023-05-16T02:01:38;15.60;75.60
25871;DHT22;13689;48.590;7.752;2023-05-16T02:04:04;15.60;75.60
25871;DHT22;13689;48.590;7.752;2023-05-16T02:06:29;15.60;75.60
25871;DHT22;13689;48.590;7.752;2023-05-16T02:08:55;15.60;75.60
25871;DHT22;13689;48.590;7.752;2023-05-16T02:11:20;15.60;75.60
25871;DHT22;13689;48.590;7.752;2023-05-16T02:13:47;15.60;75.70
25871;DHT22;13689;48.590;7.752;2023-05-16T02:16:14;15.60;75.60
25871;DHT22;13689;48.590;7.752;2023-05-16T02:18:40;15.50;75.60
25871;DHT22;13689;48.590;7.752;2023-05-16T02:21:05;15.50;75.60
25871;DHT22;13689;48.590;7.752;2023-05-16T02:23:31;15.50;75.70
25871;DHT22;13689;48.590;7.752;2023-05-16T02:25:57;15.50;75.60
25871;DHT22;13689;48.590;7.752;2023-05-16T02:28:22;15.50;75.80
25871;DHT22;13689;48.590;7.752;2023-05-16T02:30:57;15.50;75.90
25871;DHT22;13689;48.590;7.752;2023-05-16T02:33:23;15.40;76.00
25871;DHT22;13689;48.590;7.752;2023-05-16T02:35:49;15.40;76.10
25871;DHT22;13689;48.590;7.752;2023-05-16T02:38:14;15.40;76.10
25871;DHT22;13689;48.590;7.752;2023-05-16T02:40:41;15.40;76.10
25871;DHT22;13689;48.590;7.752;2023-05-16T02:43:07;15.40;76.20
25871;DHT22;13689;48.590;7.752;2023-05-16T02:45:33;15.40;76.10
25871;DHT22;13689;48.590;7.752;2023-05-16T02:47:58;15.40;76.10
25871;DHT22;13689;48.590;7.752;2023-05-16T02:50:24;15.40;76.10
25871;DHT22;13689;48.590;7.752;2023-05-16T02:52:49;15.40;76.30
25871;DHT22;13689;48.590;7.752;2023-05-16T02:55:15;15.40;76.10
25871;DHT22;13689;48.590;7.752;2023-05-16T02:57:40;15.40;76.00
25871;DHT22;13689;48.590;7.752;2023-05-16T03:00:06;15.30;76.10
25871;DHT22;13689;48.590;7.752;2023-05-16T03:02:33;15.30;76.20
25871;DHT22;13689;48.590;7.752;2023-05-16T03:04:59;15.30;76.10
25871;DHT22;13689;48.590;7.752;2023-05-16T03:07:24;15.30;76.20
25871;DHT22;13689;48.590;7.752;2023-05-16T03:09:50;15.30;76.40
25871;DHT22;13689;48.590;7.752;2023-05-16T03:12:15;15.20;76.40
25871;DHT22;13689;48.590;7.752;2023-05-16T03:14:41;15.20;76.60
25871;DHT22;13689;48.590;7.752;2023-05-16T03:17:07;15.20;76.60
25871;DHT22;13689;48.590;7.752;2023-05-16T03:19:33;15.20;76.60
25871;DHT22;13689;48.590;7.752;2023-05-16T03:21:59;15.20;76.60
25871;DHT22;13689;48.590;7.752;2023-05-16T03:24:24;15.20;76.60
25871;DHT22;13689;48.590;7.752;2023-05-16T03:26:50;15.10;76.50
25871;DHT22;13689;48.590;7.752;2023-05-16T03:29:16;15.10;76.60
25871;DHT22;13689;48.590;7.752;2023-05-16T03:31:41;15.10;76.70
25871;DHT22;13689;48.590;7.752;2023-05-16T03:34:07;15.00;76.70
25871;DHT22;13689;48.590;7.752;2023-05-16T03:36:33;15.00;76.60
25871;DHT22;13689;48.590;7.752;2023-05-16T03:38:59;14.90;77.60
25871;DHT22;13689;48.590;7.752;2023-05-16T03:41:25;14.90;76.80
25871;DHT22;13689;48.590;7.752;2023-05-16T03:43:50;14.90;77.80
25871;DHT22;13689;48.590;7.752;2023-05-16T03:46:16;14.90;77.00
25871;DHT22;13689;48.590;7.752;2023-05-16T03:48:41;14.90;77.00
25871;DHT22;13689;48.590;7.752;2023-05-16T03:51:07;14.90;77.10
25871;DHT22;13689;48.590;7.752;2023-05-16T03:53:32;14.80;77.10
25871;DHT22;13689;48.590;7.752;2023-05-16T03:55:58;14.80;77.20
25871;DHT22;13689;48.590;7.752;2023-05-16T03:58:23;14.80;77.10
25871;DHT22;13689;48.590;7.752;2023-05-16T04:00:49;14.80;77.20
25871;DHT22;13689;48.590;7.752;2023-05-16T04:03:15;14.80;77.20
25871;DHT22;13689;48.590;7.752;2023-05-16T04:05:40;14.80;77.20
25871;DHT22;13689;48.590;7.752;2023-05-16T04:08:06;14.80;77.30
25871;DHT22;13689;48.590;7.752;2023-05-16T04:10:31;14.80;77.20
25871;DHT22;13689;48.590;7.752;2023-05-16T04:12:57;14.80;77.10
25871;DHT22;13689;48.590;7.752;2023-05-16T04:15:22;14.80;77.10
25871;DHT22;13689;48.590;7.752;2023-05-16T04:17:48;14.80;77.00
25871;DHT22;13689;48.590;7.752;2023-05-16T04:20:13;14.80;77.10
25871;DHT22;13689;48.590;7.752;2023-05-16T04:22:39;14.80;77.20
25871;DHT22;13689;48.590;7.752;2023-05-16T04:25:05;14.80;77.10
25871;DHT22;13689;48.590;7.752;2023-05-16T04:27:30;14.80;77.00
25871;DHT22;13689;48.590;7.752;2023-05-16T04:29:56;14.80;77.90
25871;DHT22;13689;48.590;7.752;2023-05-16T04:32:21;14.80;77.00
25871;DHT22;13689;48.590;7.752;2023-05-16T04:34:48;14.80;76.90
25871;DHT22;13689;48.590;7.752;2023-05-16T04:37:18;14.80;77.10
25871;DHT22;13689;48.590;7.752;2023-05-16T04:39:45;14.80;76.80
25871;DHT22;13689;48.590;7.752;2023-05-16T04:42:10;14.80;76.90
25871;DHT22;13689;48.590;7.752;2023-05-16T04:44:36;14.80;76.80
25871;DHT22;13689;48.590;7.752;2023-05-16T04:47:03;14.80;76.80
25871;DHT22;13689;48.590;7.752;2023-05-16T04:49:29;14.80;76.80
25871;DHT22;13689;48.590;7.752;2023-05-16T04:51:54;14.80;76.90
25871;DHT22;13689;48.590;7.752;2023-05-16T04:54:20;14.80;76.80
25871;DHT22;13689;48.590;7.752;2023-05-16T04:56:45;14.80;76.70
25871;DHT22;13689;48.590;7.752;2023-05-16T04:59:11;14.80;76.70
25871;DHT22;13689;48.590;7.752;2023-05-16T05:01:36;14.80;76.70
25871;DHT22;13689;48.590;7.752;2023-05-16T05:04:02;14.80;76.60
25871;DHT22;13689;48.590;7.752;2023-05-16T05:06:27;14.80;76.60
25871;DHT22;13689;48.590;7.752;2023-05-16T05:08:52;14.80;76.50
25871;DHT22;13689;48.590;7.752;2023-05-16T05:11:18;14.80;76.60
25871;DHT22;13689;48.590;7.752;2023-05-16T05:13:44;14.80;76.60
25871;DHT22;13689;48.590;7.752;2023-05-16T05:16:10;14.90;76.60
25871;DHT22;13689;48.590;7.752;2023-05-16T05:18:35;14.90;76.50
25871;DHT22;13689;48.590;7.752;2023-05-16T05:21:01;14.90;76.50
25871;DHT22;13689;48.590;7.752;2023-05-16T05:23:26;14.90;76.40
25871;DHT22;13689;48.590;7.752;2023-05-16T05:25:52;14.90;76.40
25871;DHT22;13689;48.590;7.752;2023-05-16T05:28:18;14.90;76.50
25871;DHT22;13689;48.590;7.752;2023-05-16T05:30:43;14.90;76.40
25871;DHT22;13689;48.590;7.752;2023-05-16T05:33:10;14.90;76.40
25871;DHT22;13689;48.590;7.752;2023-05-16T05:35:35;14.90;76.40
25871;DHT22;13689;48.590;7.752;2023-05-16T05:38:01;14.80;76.30
25871;DHT22;13689;48.590;7.752;2023-05-16T05:40:26;14.90;76.30
25871;DHT22;13689;48.590;7.752;2023-05-16T05:42:52;14.90;76.50
25871;DHT22;13689;48.590;7.752;2023-05-16T05:45:18;14.90;76.40
25871;DHT22;13689;48.590;7.752;2023-05-16T05:47:43;14.90;76.20
25871;DHT22;13689;48.590;7.752;2023-05-16T05:50:09;14.90;76.30
25871;DHT22;13689;48.590;7.752;2023-05-16T05:52:37;14.90;76.40
25871;DHT22;13689;48.590;7.752;2023-05-16T05:55:02;14.90;76.30
25871;DHT22;13689;48.590;7.752;2023-05-16T05:57:28;14.80;76.10
25871;DHT22;13689;48.590;7.752;2023-05-16T05:59:54;14.80;76.10
25871;DHT22;13689;48.590;7.752;2023-05-16T06:02:19;14.90;76.20
25871;DHT22;13689;48.590;7.752;2023-05-16T06:04:45;14.80;76.00
25871;DHT22;13689;48.590;7.752;2023-05-16T06:07:10;14.90;76.00
25871;DHT22;13689;48.590;7.752;2023-05-16T06:09:36;14.80;76.20
25871;DHT22;13689;48.590;7.752;2023-05-16T06:12:01;14.90;76.10
25871;DHT22;13689;48.590;7.752;2023-05-16T06:14:28;14.90;76.00
25871;DHT22;13689;48.590;7.752;2023-05-16T06:16:53;14.90;75.80
25871;DHT22;13689;48.590;7.752;2023-05-16T06:19:19;14.90;75.80
25871;DHT22;13689;48.590;7.752;2023-05-16T06:21:44;15.00;75.90
25871;DHT22;13689;48.590;7.752;2023-05-16T06:24:10;15.00;75.70
25871;DHT22;13689;48.590;7.752;2023-05-16T06:26:36;15.00;75.60
25871;DHT22;13689;48.590;7.752;2023-05-16T06:29:02;14.90;75.50
25871;DHT22;13689;48.590;7.752;2023-05-16T06:31:27;14.90;75.50
25871;DHT22;13689;48.590;7.752;2023-05-16T06:33:53;14.90;75.50
25871;DHT22;13689;48.590;7.752;2023-05-16T06:36:18;15.00;75.50
25871;DHT22;13689;48.590;7.752;2023-05-16T06:38:44;15.00;75.40
25871;DHT22;13689;48.590;7.752;2023-05-16T06:41:09;14.90;75.30
25871;DHT22;13689;48.590;7.752;2023-05-16T06:43:35;14.90;75.40
25871;DHT22;13689;48.590;7.752;2023-05-16T06:46:00;14.90;75.30
25871;DHT22;13689;48.590;7.752;2023-05-16T06:48:26;14.90;75.60
25871;DHT22;13689;48.590;7.752;2023-05-16T06:50:51;14.90;75.20
25871;DHT22;13689;48.590;7.752;2023-05-16T06:53:17;14.90;75.20
25871;DHT22;13689;48.590;7.752;2023-05-16T06:55:43;14.90;75.30
25871;DHT22;13689;48.590;7.752;2023-05-16T06:58:09;14.90;75.20
25871;DHT22;13689;48.590;7.752;2023-05-16T07:00:34;14.90;74.90
25871;DHT22;13689;48.590;7.752;2023-05-16T07:03:00;14.90;75.10
25871;DHT22;13689;48.590;7.752;2023-05-16T07:05:25;14.90;75.10
25871;DHT22;13689;48.590;7.752;2023-05-16T07:07:51;14.90;74.90
25871;DHT22;13689;48.590;7.752;2023-05-16T07:10:16;14.90;74.90
25871;DHT22;13689;48.590;7.752;2023-05-16T07:12:42;15.00;74.90
25871;DHT22;13689;48.590;7.752;2023-05-16T07:15:07;15.00;74.80
25871;DHT22;13689;48.590;7.752;2023-05-16T07:17:33;15.00;74.60
25871;DHT22;13689;48.590;7.752;2023-05-16T07:19:59;15.00;74.30
25871;DHT22;13689;48.590;7.752;2023-05-16T07:22:24;15.00;74.40
25871;DHT22;13689;48.590;7.752;2023-05-16T07:24:50;14.90;74.40
25871;DHT22;13689;48.590;7.752;2023-05-16T07:27:18;14.90;74.40
25871;DHT22;13689;48.590;7.752;2023-05-16T07:29:44;15.00;74.30
25871;DHT22;13689;48.590;7.752;2023-05-16T07:32:09;15.00;74.30
25871;DHT22;13689;48.590;7.752;2023-05-16T07:34:35;15.00;74.20
25871;DHT22;13689;48.590;7.752;2023-05-16T07:37:01;15.00;74.00
25871;DHT22;13689;48.590;7.752;2023-05-16T07:39:26;15.00;74.10
25871;DHT22;13689;48.590;7.752;2023-05-16T07:41:52;15.00;74.20
25871;DHT22;13689;48.590;7.752;2023-05-16T07:44:17;15.00;74.10
25871;DHT22;13689;48.590;7.752;2023-05-16T07:46:43;15.10;74.10
25871;DHT22;13689;48.590;7.752;2023-05-16T07:49:09;15.10;73.90
25871;DHT22;13689;48.590;7.752;2023-05-16T07:51:34;15.10;73.70
25871;DHT22;13689;48.590;7.752;2023-05-16T07:54:00;15.10;73.50
25871;DHT22;13689;48.590;7.752;2023-05-16T07:56:26;15.10;73.80
25871;DHT22;13689;48.590;7.752;2023-05-16T07:58:52;15.10;73.80
25871;DHT22;13689;48.590;7.752;2023-05-16T08:01:17;15.10;73.70
25871;DHT22;13689;48.590;7.752;2023-05-16T08:03:43;15.10;73.70
25871;DHT22;13689;48.590;7.752;2023-05-16T08:06:08;15.10;73.50
25871;DHT22;13689;48.590;7.752;2023-05-16T08:08:34;15.10;73.60
25871;DHT22;13689;48.590;7.752;2023-05-16T08:11:00;15.00;73.50
25871;DHT22;13689;48.590;7.752;2023-05-16T08:13:25;15.00;73.50
25871;DHT22;13689;48.590;7.752;2023-05-16T08:15:51;15.00;73.40
25871;DHT22;13689;48.590;7.752;2023-05-16T08:18:16;14.90;73.30
25871;DHT22;13689;48.590;7.752;2023-05-16T08:20:41;14.90;73.40
25871;DHT22;13689;48.590;7.752;2023-05-16T08:23:07;14.90;73.50
25871;DHT22;13689;48.590;7.752;2023-05-16T08:25:33;14.90;73.40
25871;DHT22;13689;48.590;7.752;2023-05-16T08:27:58;14.90;73.40
25871;DHT22;13689;48.590;7.752;2023-05-16T08:30:26;14.90;73.30
25871;DHT22;13689;48.590;7.752;2023-05-16T08:32:51;14.90;73.20
25871;DHT22;13689;48.590;7.752;2023-05-16T08:35:17;15.00;73.20
25871;DHT22;13689;48.590;7.752;2023-05-16T08:37:42;15.00;73.20
25871;DHT22;13689;48.590;7.752;2023-05-16T08:40:11;15.00;73.00
25871;DHT22;13689;48.590;7.752;2023-05-16T08:42:36;15.00;73.00
25871;DHT22;13689;48.590;7.752;2023-05-16T08:45:03;15.00;72.80
25871;DHT22;13689;48.590;7.752;2023-05-16T08:47:30;15.00;73.00
25871;DHT22;13689;48.590;7.752;2023-05-16T08:49:56;15.10;72.90
25871;DHT22;13689;48.590;7.752;2023-05-16T08:52:22;15.10;72.80
25871;DHT22;13689;48.590;7.752;2023-05-16T08:54:50;15.10;72.70
25871;DHT22;13689;48.590;7.752;2023-05-16T08:57:16;15.10;72.60
25871;DHT22;13689;48.590;7.752;2023-05-16T08:59:43;15.10;72.60
25871;DHT22;13689;48.590;7.752;2023-05-16T09:02:09;15.10;72.70
25871;DHT22;13689;48.590;7.752;2023-05-16T09:04:34;15.00;72.70
25871;DHT22;13689;48.590;7.752;2023-05-16T09:07:01;15.10;72.80
25871;DHT22;13689;48.590;7.752;2023-05-16T09:09:26;15.10;73.50
25871;DHT22;13689;48.590;7.752;2023-05-16T09:11:52;15.00;72.50
25871;DHT22;13689;48.590;7.752;2023-05-16T09:14:18;14.90;72.70
25871;DHT22;13689;48.590;7.752;2023-05-16T09:16:44;14.90;72.80
25871;DHT22;13689;48.590;7.752;2023-05-16T09:19:11;14.90;72.80
25871;DHT22;13689;48.590;7.752;2023-05-16T09:21:37;14.80;72.80
25871;DHT22;13689;48.590;7.752;2023-05-16T09:24:06;14.80;72.60
25871;DHT22;13689;48.590;7.752;2023-05-16T09:26:34;14.90;72.70
25871;DHT22;13689;48.590;7.752;2023-05-16T09:29:00;14.80;72.60
25871;DHT22;13689;48.590;7.752;2023-05-16T09:31:27;14.70;72.50
25871;DHT22;13689;48.590;7.752;2023-05-16T09:33:56;14.70;73.10
25871;DHT22;13689;48.590;7.752;2023-05-16T09:36:22;14.70;73.10
25871;DHT22;13689;48.590;7.752;2023-05-16T09:38:50;14.70;73.10
25871;DHT22;13689;48.590;7.752;2023-05-16T09:41:15;14.70;73.00
25871;DHT22;13689;48.590;7.752;2023-05-16T09:43:41;14.70;73.20
25871;DHT22;13689;48.590;7.752;2023-05-16T09:46:08;14.80;73.30
25871;DHT22;13689;48.590;7.752;2023-05-16T09:48:36;14.80;73.30
25871;DHT22;13689;48.590;7.752;2023-05-16T09:51:06;15.00;73.30
25871;DHT22;13689;48.590;7.752;2023-05-16T09:53:32;15.10;72.90
25871;DHT22;13689;48.590;7.752;2023-05-16T09:56:00;15.10;72.70
25871;DHT22;13689;48.590;7.752;2023-05-16T09:58:30;15.10;72.60
25871;DHT22;13689;48.590;7.752;2023-05-16T10:00:56;15.20;72.50
25871;DHT22;13689;48.590;7.752;2023-05-16T10:03:21;15.30;72.50
25871;DHT22;13689;48.590;7.752;2023-05-16T10:05:47;15.40;72.40
25871;DHT22;13689;48.590;7.752;2023-05-16T10:08:13;15.40;72.20
25871;DHT22;13689;48.590;7.752;2023-05-16T10:10:39;15.30;72.00
25871;DHT22;13689;48.590;7.752;2023-05-16T10:13:06;15.30;72.10
25871;DHT22;13689;48.590;7.752;2023-05-16T10:15:32;15.30;72.10
25871;DHT22;13689;48.590;7.752;2023-05-16T10:17:58;15.30;71.90
25871;DHT22;13689;48.590;7.752;2023-05-16T10:20:24;15.30;71.80
25871;DHT22;13689;48.590;7.752;2023-05-16T10:22:51;15.30;71.90
25871;DHT22;13689;48.590;7.752;2023-05-16T10:27:42;15.30;71.50
25871;DHT22;13689;48.590;7.752;2023-05-16T10:30:08;15.30;71.40
25871;DHT22;13689;48.590;7.752;2023-05-16T10:32:35;15.20;71.50
25871;DHT22;13689;48.590;7.752;2023-05-16T10:35:01;15.20;71.50
25871;DHT22;13689;48.590;7.752;2023-05-16T10:37:28;15.20;71.20
25871;DHT22;13689;48.590;7.752;2023-05-16T10:39:54;15.10;71.20
25871;DHT22;13689;48.590;7.752;2023-05-16T10:42:19;15.10;71.50
25871;DHT22;13689;48.590;7.752;2023-05-16T10:44:45;15.10;71.50
25871;DHT22;13689;48.590;7.752;2023-05-16T10:47:10;15.10;71.40
25871;DHT22;13689;48.590;7.752;2023-05-16T10:49:39;15.00;71.10
25871;DHT22;13689;48.590;7.752;2023-05-16T10:52:08;14.80;71.10
25871;DHT22;13689;48.590;7.752;2023-05-16T10:54:35;14.80;71.50
25871;DHT22;13689;48.590;7.752;2023-05-16T10:57:08;14.70;71.50
25871;DHT22;13689;48.590;7.752;2023-05-16T10:59:41;14.70;71.80
25871;DHT22;13689;48.590;7.752;2023-05-16T11:02:19;14.70;71.80
25871;DHT22;13689;48.590;7.752;2023-05-16T11:04:48;14.70;71.80
25871;DHT22;13689;48.590;7.752;2023-05-16T11:07:15;14.60;71.80
25871;DHT22;13689;48.590;7.752;2023-05-16T11:09:45;14.50;71.80
25871;DHT22;13689;48.590;7.752;2023-05-16T11:12:17;14.50;72.00
25871;DHT22;13689;48.590;7.752;2023-05-16T11:14:45;14.40;72.30
25871;DHT22;13689;48.590;7.752;2023-05-16T11:22:20;14.40;72.50
25871;DHT22;13689;48.590;7.752;2023-05-16T11:27:19;14.30;71.70
25871;DHT22;13689;48.590;7.752;2023-05-16T11:29:45;14.30;72.00
25871;DHT22;13689;48.590;7.752;2023-05-16T11:32:11;14.30;71.50
25871;DHT22;13689;48.590;7.752;2023-05-16T11:34:37;14.30;70.80
25871;DHT22;13689;48.590;7.752;2023-05-16T11:37:03;14.30;70.80
25871;DHT22;13689;48.590;7.752;2023-05-16T11:39:30;14.30;70.80
25871;DHT22;13689;48.590;7.752;2023-05-16T11:41:55;14.30;70.60
25871;DHT22;13689;48.590;7.752;2023-05-16T11:44:21;14.30;70.70
25871;DHT22;13689;48.590;7.752;2023-05-16T11:46:47;14.30;70.80
25871;DHT22;13689;48.590;7.752;2023-05-16T11:49:12;14.30;70.70
25871;DHT22;13689;48.590;7.752;2023-05-16T11:51:38;14.30;70.80
25871;DHT22;13689;48.590;7.752;2023-05-16T11:54:04;14.30;71.00
25871;DHT22;13689;48.590;7.752;2023-05-16T11:56:30;14.30;70.80
25871;DHT22;13689;48.590;7.752;2023-05-16T11:58:58;14.40;70.80
25871;DHT22;13689;48.590;7.752;2023-05-16T12:01:23;14.50;70.50
25871;DHT22;13689;48.590;7.752;2023-05-16T12:03:53;14.50;69.90
25871;DHT22;13689;48.590;7.752;2023-05-16T12:06:19;14.50;70.10
25871;DHT22;13689;48.590;7.752;2023-05-16T12:08:51;14.50;70.20
25871;DHT22;13689;48.590;7.752;2023-05-16T12:11:25;14.50;70.10
25871;DHT22;13689;48.590;7.752;2023-05-16T12:13:50;14.60;70.10
25871;DHT22;13689;48.590;7.752;2023-05-16T12:16:16;14.60;69.60
25871;DHT22;13689;48.590;7.752;2023-05-16T12:18:42;14.60;69.70
25871;DHT22;13689;48.590;7.752;2023-05-16T12:21:08;14.70;69.70
25871;DHT22;13689;48.590;7.752;2023-05-16T12:23:34;14.70;69.40
25871;DHT22;13689;48.590;7.752;2023-05-16T12:25:59;14.60;69.10
25871;DHT22;13689;48.590;7.752;2023-05-16T12:28:32;14.60;68.80
25871;DHT22;13689;48.590;7.752;2023-05-16T12:31:03;14.60;68.70
25871;DHT22;13689;48.590;7.752;2023-05-16T12:33:30;14.60;68.70
25871;DHT22;13689;48.590;7.752;2023-05-16T12:36:01;14.60;68.20
25871;DHT22;13689;48.590;7.752;2023-05-16T12:38:28;14.60;67.90
25871;DHT22;13689;48.590;7.752;2023-05-16T12:40:57;14.60;68.10
25871;DHT22;13689;48.590;7.752;2023-05-16T12:43:23;14.70;68.00
25871;DHT22;13689;48.590;7.752;2023-05-16T12:45:52;14.70;67.70
25871;DHT22;13689;48.590;7.752;2023-05-16T12:48:19;14.60;67.30
25871;DHT22;13689;48.590;7.752;2023-05-16T12:50:44;14.60;67.60
25871;DHT22;13689;48.590;7.752;2023-05-16T12:53:14;14.50;67.70
25871;DHT22;13689;48.590;7.752;2023-05-16T12:55:40;14.50;67.80
25871;DHT22;13689;48.590;7.752;2023-05-16T12:58:05;14.60;67.80
25871;DHT22;13689;48.590;7.752;2023-05-16T13:00:31;14.60;67.50
25871;DHT22;13689;48.590;7.752;2023-05-16T13:02:57;14.50;67.10
25871;DHT22;13689;48.590;7.752;2023-05-16T13:05:23;14.50;66.80
25871;DHT22;13689;48.590;7.752;2023-05-16T13:07:48;14.50;66.70
25871;DHT22;13689;48.590;7.752;2023-05-16T13:10:16;14.50;66.70
25871;DHT22;13689;48.590;7.752;2023-05-16T13:12:41;14.50;66.50
25871;DHT22;13689;48.590;7.752;2023-05-16T13:15:07;14.60;66.50
25871;DHT22;13689;48.590;7.752;2023-05-16T13:17:34;14.70;66.40
25871;DHT22;13689;48.590;7.752;2023-05-16T13:19:59;14.80;66.20
25871;DHT22;13689;48.590;7.752;2023-05-16T13:22:26;14.80;66.20
25871;DHT22;13689;48.590;7.752;2023-05-16T13:24:51;14.80;66.10
25871;DHT22;13689;48.590;7.752;2023-05-16T13:27:17;14.80;66.20
25871;DHT22;13689;48.590;7.752;2023-05-16T13:29:42;14.70;66.20
25871;DHT22;13689;48.590;7.752;2023-05-16T13:32:08;14.70;66.10
25871;DHT22;13689;48.590;7.752;2023-05-16T13:34:33;14.70;66.50
25871;DHT22;13689;48.590;7.752;2023-05-16T13:36:59;14.60;66.50
25871;DHT22;13689;48.590;7.752;2023-05-16T13:39:24;14.70;66.50
25871;DHT22;13689;48.590;7.752;2023-05-16T13:41:50;14.70;66.30
25871;DHT22;13689;48.590;7.752;2023-05-16T13:44:16;14.70;66.10
25871;DHT22;13689;48.590;7.752;2023-05-16T13:46:42;14.70;66.20
25871;DHT22;13689;48.590;7.752;2023-05-16T13:49:08;14.70;66.20
25871;DHT22;13689;48.590;7.752;2023-05-16T13:51:33;14.80;66.20
25871;DHT22;13689;48.590;7.752;2023-05-16T13:53:58;14.70;65.80
25871;DHT22;13689;48.590;7.752;2023-05-16T13:56:24;14.80;65.80
25871;DHT22;13689;48.590;7.752;2023-05-16T13:58:50;14.70;65.50
25871;DHT22;13689;48.590;7.752;2023-05-16T14:01:16;14.80;65.40
25871;DHT22;13689;48.590;7.752;2023-05-16T14:03:41;14.80;65.00
25871;DHT22;13689;48.590;7.752;2023-05-16T14:06:07;14.80;64.80
25871;DHT22;13689;48.590;7.752;2023-05-16T14:08:33;14.80;64.90
25871;DHT22;13689;48.590;7.752;2023-05-16T14:11:00;14.80;64.10
25871;DHT22;13689;48.590;7.752;2023-05-16T14:13:25;14.70;64.30
25871;DHT22;13689;48.590;7.752;2023-05-16T14:15:51;14.70;64.10
25871;DHT22;13689;48.590;7.752;2023-05-16T14:18:17;14.70;63.60
25871;DHT22;13689;48.590;7.752;2023-05-16T14:20:42;14.70;63.30
25871;DHT22;13689;48.590;7.752;2023-05-16T14:23:08;14.60;63.10
25871;DHT22;13689;48.590;7.752;2023-05-16T14:25:33;14.60;63.30
25871;DHT22;13689;48.590;7.752;2023-05-16T14:27:59;14.60;62.90
25871;DHT22;13689;48.590;7.752;2023-05-16T14:30:24;14.70;63.20
25871;DHT22;13689;48.590;7.752;2023-05-16T14:32:50;14.80;63.00
25871;DHT22;13689;48.590;7.752;2023-05-16T14:35:16;14.80;62.90
25871;DHT22;13689;48.590;7.752;2023-05-16T14:37:41;14.90;62.40
25871;DHT22;13689;48.590;7.752;2023-05-16T14:40:07;15.00;62.60
25871;DHT22;13689;48.590;7.752;2023-05-16T14:42:33;15.20;62.50
25871;DHT22;13689;48.590;7.752;2023-05-16T14:44:59;15.20;62.10
25871;DHT22;13689;48.590;7.752;2023-05-16T14:47:24;15.20;61.90
25871;DHT22;13689;48.590;7.752;2023-05-16T14:49:50;15.20;62.00
25871;DHT22;13689;48.590;7.752;2023-05-16T14:52:17;15.20;61.70
25871;DHT22;13689;48.590;7.752;2023-05-16T14:54:42;15.20;61.70
25871;DHT22;13689;48.590;7.752;2023-05-16T14:57:08;15.20;61.30
25871;DHT22;13689;48.590;7.752;2023-05-16T14:59:33;15.30;61.40
25871;DHT22;13689;48.590;7.752;2023-05-16T15:01:59;15.30;61.00
25871;DHT22;13689;48.590;7.752;2023-05-16T15:04:25;15.30;60.50
25871;DHT22;13689;48.590;7.752;2023-05-16T15:06:51;15.30;60.30
25871;DHT22;13689;48.590;7.752;2023-05-16T15:09:16;15.20;60.30
25871;DHT22;13689;48.590;7.752;2023-05-16T15:11:43;15.10;60.20
25871;DHT22;13689;48.590;7.752;2023-05-16T15:14:09;15.10;60.30
25871;DHT22;13689;48.590;7.752;2023-05-16T15:16:34;15.00;59.60
25871;DHT22;13689;48.590;7.752;2023-05-16T15:19:00;15.00;59.60
25871;DHT22;13689;48.590;7.752;2023-05-16T15:21:25;15.10;59.70
25871;DHT22;13689;48.590;7.752;2023-05-16T15:23:51;15.10;59.70
25871;DHT22;13689;48.590;7.752;2023-05-16T15:26:17;15.10;59.40
25871;DHT22;13689;48.590;7.752;2023-05-16T15:28:43;15.00;59.00
25871;DHT22;13689;48.590;7.752;2023-05-16T15:31:08;15.00;59.10
25871;DHT22;13689;48.590;7.752;2023-05-16T15:33:34;15.00;59.20
25871;DHT22;13689;48.590;7.752;2023-05-16T15:35:59;14.90;58.60
25871;DHT22;13689;48.590;7.752;2023-05-16T15:38:25;15.00;58.80
25871;DHT22;13689;48.590;7.752;2023-05-16T15:40:51;15.10;58.80